createdAt,value
2017-11-21T00:00:18.314Z,99.90
2017-11-21T00:02:44.738Z,99.90
2017-11-21T00:05:11.199Z,99.90
2017-11-21T00:07:37.634Z,99.90
2017-11-21T00:10:04.043Z,99.90
2017-11-21T00:12:30.491Z,99.90
2017-11-21T00:14:56.907Z,99.90
2017-11-21T00:17:23.325Z,99.90
2017-11-21T00:19:49.803Z,99.90
2017-11-21T00:22:28.371Z,99.90
2017-11-21T00:24:55.523Z,99.90
2017-11-21T00:27:21.963Z,99.90
2017-11-21T00:29:48.389Z,99.90
2017-11-21T00:32:14.857Z,99.90
2017-11-21T00:34:41.287Z,99.90
2017-11-21T00:37:07.720Z,99.90
2017-11-21T00:39:34.154Z,99.90
2017-11-21T00:42:01.336Z,99.90
2017-11-21T00:44:27.778Z,99.90
2017-11-21T00:46:54.180Z,99.90
2017-11-21T00:49:20.587Z,99.90
2017-11-21T00:51:46.995Z,99.90
2017-11-21T00:54:13.439Z,99.90
2017-11-21T00:56:39.846Z,99.90
2017-11-21T00:59:06.974Z,99.90
2017-11-21T01:01:33.422Z,99.90
2017-11-21T01:03:59.802Z,99.90
2017-11-21T01:06:26.195Z,99.90
2017-11-21T01:08:52.605Z,99.90
2017-11-21T01:11:19.010Z,99.90
2017-11-21T01:13:45.501Z,99.90
2017-11-21T01:16:12.646Z,99.90
2017-11-21T01:18:39.801Z,99.90
2017-11-21T01:21:06.394Z,99.90
2017-11-21T01:23:32.788Z,99.90
2017-11-21T01:25:59.214Z,99.90
2017-11-21T01:28:25.632Z,99.90
2017-11-21T01:30:52.086Z,99.90
2017-11-21T01:33:18.796Z,99.90
2017-11-21T01:35:45.218Z,99.90
2017-11-21T01:38:12.377Z,99.90
2017-11-21T01:40:38.831Z,99.90
2017-11-21T01:43:06.025Z,99.90
2017-11-21T01:45:32.847Z,99.90
2017-11-21T01:47:59.249Z,99.90
2017-11-21T01:50:26.394Z,99.90
2017-11-21T01:52:52.835Z,99.90
2017-11-21T01:55:19.254Z,99.90
2017-11-21T01:57:46.593Z,99.90
2017-11-21T02:00:13.020Z,99.90
2017-11-21T02:02:40.215Z,99.90
2017-11-21T02:05:06.763Z,99.90
2017-11-21T02:07:33.166Z,99.90
2017-11-21T02:10:00.301Z,99.90
2017-11-21T02:12:26.711Z,99.90
2017-11-21T02:14:53.167Z,99.90
2017-11-21T02:17:20.345Z,99.90
2017-11-21T02:19:46.793Z,99.90
2017-11-21T02:22:13.282Z,99.90
2017-11-21T02:24:39.775Z,99.90
2017-11-21T02:27:06.235Z,99.90
2017-11-21T02:29:33.451Z,99.90
2017-11-21T02:31:59.935Z,99.90
2017-11-21T02:34:26.383Z,99.90
2017-11-21T02:36:52.882Z,99.90
2017-11-21T02:39:19.397Z,99.90
2017-11-21T02:41:45.866Z,99.90
2017-11-21T02:44:13.129Z,99.90
2017-11-21T02:46:39.621Z,99.90
2017-11-21T02:49:06.105Z,99.90
2017-11-21T02:51:32.595Z,99.90
2017-11-21T02:53:59.081Z,99.90
2017-11-21T02:56:25.537Z,99.90
2017-11-21T02:58:52.122Z,99.90
2017-11-21T03:01:19.319Z,99.90
2017-11-21T03:03:45.763Z,99.90
2017-11-21T03:06:12.194Z,99.90
2017-11-21T03:08:38.606Z,99.90
2017-11-21T03:11:05.104Z,99.90
2017-11-21T03:13:31.552Z,99.90
2017-11-21T03:15:58.723Z,99.90
2017-11-21T03:18:25.186Z,99.90
2017-11-21T03:21:03.779Z,99.90
2017-11-21T03:23:42.514Z,99.90
2017-11-21T03:26:16.747Z,99.90
2017-11-21T03:28:43.241Z,99.90
2017-11-21T03:31:09.680Z,99.90
2017-11-21T03:33:36.145Z,99.90
2017-11-21T03:36:02.640Z,99.90
2017-11-21T03:38:29.086Z,99.90
2017-11-21T03:40:55.534Z,99.90
2017-11-21T03:43:21.984Z,99.90
2017-11-21T03:45:48.435Z,99.90
2017-11-21T03:48:15.630Z,99.90
2017-11-21T03:50:42.089Z,99.90
2017-11-21T03:53:08.534Z,99.90
2017-11-21T03:55:35.014Z,99.90
2017-11-21T03:58:02.175Z,99.90
2017-11-21T04:00:28.614Z,99.90
2017-11-21T04:02:55.086Z,99.90
2017-11-21T04:05:21.512Z,99.90
2017-11-21T04:07:47.983Z,99.90
2017-11-21T04:10:14.372Z,99.90
2017-11-21T04:12:40.804Z,99.90
2017-11-21T04:15:07.263Z,99.90
2017-11-21T04:17:34.466Z,99.90
2017-11-21T04:20:00.890Z,99.90
2017-11-21T04:22:27.374Z,99.90
2017-11-21T04:24:53.825Z,99.90
2017-11-21T04:27:20.221Z,99.90
2017-11-21T04:29:46.641Z,99.90
2017-11-21T04:32:13.078Z,99.90
2017-11-21T04:34:39.493Z,99.90
2017-11-21T04:37:05.961Z,99.90
2017-11-21T04:39:33.126Z,99.90
2017-11-21T04:42:00.343Z,99.90
2017-11-21T04:44:26.762Z,99.90
2017-11-21T04:46:53.183Z,99.90
2017-11-21T04:49:20.361Z,99.90
2017-11-21T04:51:46.763Z,99.90
2017-11-21T04:54:13.266Z,99.90
2017-11-21T04:56:40.450Z,99.90
2017-11-21T04:59:06.897Z,99.90
2017-11-21T05:01:33.358Z,99.90
2017-11-21T05:03:59.813Z,99.90
2017-11-21T05:06:27.082Z,99.90
2017-11-21T05:08:53.507Z,99.90
2017-11-21T05:11:20.717Z,99.90
2017-11-21T05:13:47.190Z,99.90
2017-11-21T05:16:14.391Z,99.90
2017-11-21T05:18:40.871Z,99.90
2017-11-21T05:21:07.325Z,99.90
2017-11-21T05:23:33.890Z,99.90
2017-11-21T05:26:00.310Z,99.90
2017-11-21T05:28:26.739Z,99.90
2017-11-21T05:30:53.227Z,99.90
2017-11-21T05:33:31.895Z,99.90
2017-11-21T05:35:58.298Z,99.90
2017-11-21T05:38:25.486Z,99.90
2017-11-21T05:40:51.949Z,99.90
2017-11-21T05:43:18.384Z,99.90
2017-11-21T05:45:44.832Z,99.90
2017-11-21T05:48:11.295Z,99.90
2017-11-21T05:50:38.501Z,99.90
2017-11-21T05:53:04.984Z,99.90
2017-11-21T05:55:31.419Z,99.90
2017-11-21T05:57:58.599Z,99.90
2017-11-21T06:00:25.072Z,99.90
2017-11-21T06:02:52.289Z,99.90
2017-11-21T06:05:18.730Z,99.90
2017-11-21T06:07:45.255Z,99.90
2017-11-21T06:10:11.711Z,99.90
2017-11-21T06:12:38.130Z,99.90
2017-11-21T06:15:04.564Z,99.90
2017-11-21T06:17:30.999Z,99.90
2017-11-21T06:19:57.401Z,99.90
2017-11-21T06:22:23.878Z,99.90
2017-11-21T06:24:50.267Z,99.90
2017-11-21T06:27:16.674Z,99.90
2017-11-21T06:29:43.931Z,99.90
2017-11-21T06:32:11.587Z,99.90
2017-11-21T06:34:38.734Z,99.90
2017-11-21T06:37:05.205Z,99.90
2017-11-21T06:39:31.603Z,99.90
2017-11-21T06:41:58.780Z,99.90
2017-11-21T06:44:25.183Z,99.90
2017-11-21T06:46:52.346Z,99.90
2017-11-21T06:49:19.491Z,99.90
2017-11-21T06:51:46.623Z,99.90
2017-11-21T06:54:13.047Z,99.90
2017-11-21T06:56:39.481Z,99.90
2017-11-21T06:59:05.912Z,99.90
2017-11-21T07:01:32.318Z,99.90
2017-11-21T07:03:58.722Z,99.90
2017-11-21T07:06:25.121Z,99.90
2017-11-21T07:08:51.534Z,99.90
2017-11-21T07:11:18.014Z,99.90
2017-11-21T07:13:44.446Z,99.90
2017-11-21T07:16:10.837Z,99.90
2017-11-21T07:18:37.268Z,99.90
2017-11-21T07:21:03.669Z,99.90
2017-11-21T07:23:30.116Z,99.90
2017-11-21T07:25:57.263Z,99.90
2017-11-21T07:28:23.677Z,99.90
2017-11-21T07:30:50.143Z,99.90
2017-11-21T07:33:16.543Z,99.90
2017-11-21T07:35:42.992Z,99.90
2017-11-21T07:38:09.394Z,99.90
2017-11-21T07:40:35.846Z,99.90
2017-11-21T07:43:02.246Z,99.90
2017-11-21T07:45:29.396Z,99.90
2017-11-21T07:47:55.854Z,99.90
2017-11-21T07:50:22.279Z,99.90
2017-11-21T07:52:48.726Z,99.90
2017-11-21T07:55:15.122Z,99.90
2017-11-21T07:57:41.539Z,99.90
2017-11-21T08:00:07.957Z,99.90
2017-11-21T08:02:35.108Z,99.90
2017-11-21T08:05:01.584Z,99.90
2017-11-21T08:07:28.018Z,99.90
2017-11-21T08:09:54.440Z,99.90
2017-11-21T08:12:20.881Z,99.90
2017-11-21T08:14:47.340Z,99.90
2017-11-21T08:17:13.878Z,99.90
2017-11-21T08:19:40.308Z,99.90
2017-11-21T08:22:06.750Z,99.90
2017-11-21T08:24:33.182Z,99.90
2017-11-21T08:26:59.603Z,99.90
2017-11-21T08:29:26.066Z,99.90
2017-11-21T08:31:53.261Z,99.90
2017-11-21T08:34:19.709Z,99.90
2017-11-21T08:36:46.156Z,99.90
2017-11-21T08:39:12.612Z,99.90
2017-11-21T08:41:39.098Z,99.90
2017-11-21T08:44:05.599Z,99.90
2017-11-21T08:46:32.767Z,99.90
2017-11-21T08:48:59.185Z,99.90
2017-11-21T08:51:25.667Z,99.90
2017-11-21T08:53:52.055Z,99.90
2017-11-21T08:56:19.231Z,99.90
2017-11-21T08:58:45.687Z,99.90
2017-11-21T09:01:12.068Z,99.90
2017-11-21T09:03:38.496Z,99.90
2017-11-21T09:06:04.929Z,99.90
2017-11-21T09:08:31.385Z,99.90
2017-11-21T09:10:57.879Z,99.90
2017-11-21T09:13:24.347Z,99.90
2017-11-21T09:15:51.490Z,93.90
2017-11-21T09:18:18.630Z,88.60
2017-11-21T09:20:45.098Z,89.40
2017-11-21T09:23:11.506Z,79.60
2017-11-21T09:25:38.655Z,71.20
2017-11-21T09:28:05.824Z,65.00
2017-11-21T09:30:32.986Z,67.00
2017-11-21T09:32:59.378Z,67.20
2017-11-21T09:35:26.551Z,84.80
2017-11-21T09:37:52.983Z,84.70
2017-11-21T09:40:20.126Z,92.00
2017-11-21T09:42:46.614Z,92.00
2017-11-21T09:45:13.042Z,91.30
2017-11-21T09:47:39.455Z,91.70
2017-11-21T09:50:05.892Z,93.90
2017-11-21T09:52:32.296Z,95.60
2017-11-21T09:54:58.708Z,96.40
2017-11-21T09:57:25.895Z,98.20
2017-11-21T09:59:52.314Z,98.10
2017-11-21T10:02:18.783Z,98.30
2017-11-21T10:04:45.251Z,98.80
2017-11-21T10:07:12.454Z,99.00
2017-11-21T10:09:38.930Z,99.00
2017-11-21T10:12:05.407Z,98.40
2017-11-21T10:14:31.796Z,98.60
2017-11-21T10:16:58.289Z,99.50
2017-11-21T10:19:24.828Z,98.40
2017-11-21T10:21:51.224Z,99.50
2017-11-21T10:24:18.406Z,97.20
2017-11-21T10:26:44.906Z,97.10
2017-11-21T10:29:12.067Z,97.30
2017-11-21T10:31:38.523Z,97.30
2017-11-21T10:34:05.010Z,97.70
2017-11-21T10:36:31.462Z,96.60
2017-11-21T10:38:57.921Z,96.40
2017-11-21T10:41:24.376Z,92.80
2017-11-21T10:43:50.834Z,90.50
2017-11-21T10:46:18.021Z,83.50
2017-11-21T10:48:44.434Z,83.20
2017-11-21T10:51:11.623Z,70.70
2017-11-21T10:53:38.021Z,70.70
2017-11-21T10:56:05.261Z,64.40
2017-11-21T10:58:32.451Z,62.30
2017-11-21T11:00:58.944Z,61.70
2017-11-21T11:03:29.429Z,63.30
2017-11-21T11:05:56.702Z,70.30
2017-11-21T11:08:24.038Z,72.90
2017-11-21T11:10:50.555Z,72.90
2017-11-21T11:13:17.127Z,75.90
2017-11-21T11:15:43.590Z,72.10
2017-11-21T11:18:10.834Z,61.80
2017-11-21T11:20:38.059Z,61.00
2017-11-21T11:23:04.539Z,61.40
2017-11-21T11:25:31.710Z,65.60
2017-11-21T11:27:58.186Z,65.70
2017-11-21T11:30:25.461Z,74.00
2017-11-21T11:32:52.658Z,80.00
2017-11-21T11:35:19.121Z,79.70
2017-11-21T11:37:46.319Z,85.60
2017-11-21T11:40:12.819Z,85.50
2017-11-21T11:42:40.060Z,88.40
2017-11-21T11:45:06.524Z,88.30
2017-11-21T11:47:33.044Z,89.50
2017-11-21T11:49:59.523Z,91.40
2017-11-21T11:52:25.988Z,91.00
2017-11-21T11:54:53.240Z,90.20
2017-11-21T11:57:20.453Z,91.30
2017-11-21T11:59:46.941Z,91.30
2017-11-21T12:02:13.354Z,91.10
2017-11-21T12:04:39.866Z,92.30
2017-11-21T12:07:06.345Z,90.90
2017-11-21T12:09:33.554Z,92.20
2017-11-21T12:12:00.056Z,92.10
2017-11-21T12:14:26.562Z,91.10
2017-11-21T12:16:53.827Z,92.10
2017-11-21T12:19:20.318Z,92.10
2017-11-21T12:21:46.811Z,91.40
2017-11-21T12:24:13.327Z,90.20
2017-11-21T12:26:39.818Z,90.30
2017-11-21T12:29:06.320Z,90.50
2017-11-21T12:31:32.797Z,87.00
2017-11-21T12:33:59.317Z,87.20
2017-11-21T12:36:25.777Z,87.00
2017-11-21T12:38:53.254Z,84.80
2017-11-21T12:41:19.737Z,85.90
2017-11-21T12:43:46.222Z,87.30
2017-11-21T12:46:12.898Z,90.20
2017-11-21T12:48:39.355Z,88.90
2017-11-21T12:51:05.889Z,90.30
2017-11-21T12:53:32.350Z,90.70
2017-11-21T12:55:59.591Z,88.10
2017-11-21T12:58:26.795Z,89.40
2017-11-21T13:00:53.265Z,89.40
2017-11-21T13:03:19.767Z,90.00
2017-11-21T13:05:46.250Z,90.10
2017-11-21T13:08:13.446Z,91.70
2017-11-21T13:10:40.004Z,91.60
2017-11-21T13:13:06.519Z,92.00
2017-11-21T13:15:32.978Z,92.50
2017-11-21T13:17:59.439Z,92.80
2017-11-21T13:20:26.719Z,92.70
2017-11-21T13:22:53.221Z,92.70
2017-11-21T13:25:20.487Z,92.30
2017-11-21T13:27:47.722Z,92.80
2017-11-21T13:30:14.967Z,92.80
2017-11-21T13:32:41.451Z,92.80
2017-11-21T13:35:07.979Z,93.40
2017-11-21T13:37:35.174Z,93.80
2017-11-21T13:40:01.659Z,93.80
2017-11-21T13:42:28.191Z,93.30
2017-11-21T13:44:54.687Z,93.40
2017-11-21T13:47:21.966Z,93.30
2017-11-21T13:49:48.430Z,93.20
2017-11-21T13:52:14.958Z,93.40
2017-11-21T13:54:41.447Z,92.80
2017-11-21T13:57:07.964Z,92.10
2017-11-21T13:59:34.454Z,92.60
2017-11-21T14:02:00.899Z,91.00
2017-11-21T14:04:27.395Z,92.20
2017-11-21T14:06:54.616Z,92.20
2017-11-21T14:09:21.078Z,92.20
2017-11-21T14:11:47.714Z,92.50
2017-11-21T14:14:14.931Z,91.20
2017-11-21T14:16:41.396Z,91.20
2017-11-21T14:19:08.677Z,91.00
2017-11-21T14:21:35.186Z,91.00
2017-11-21T14:24:02.396Z,92.20
2017-11-21T14:26:28.886Z,92.10
2017-11-21T14:28:56.158Z,91.10
2017-11-21T14:31:23.353Z,91.10
2017-11-21T14:33:49.824Z,91.10
2017-11-21T14:36:17.059Z,91.00
2017-11-21T14:38:43.570Z,90.90
2017-11-21T14:41:11.536Z,90.80
2017-11-21T14:43:38.002Z,90.70
2017-11-21T14:46:04.462Z,90.80
2017-11-21T14:48:30.946Z,90.50
2017-11-21T14:50:57.442Z,90.80
2017-11-21T14:53:23.914Z,90.70
2017-11-21T14:55:50.390Z,91.00
2017-11-21T14:58:16.899Z,90.30
2017-11-21T15:00:44.157Z,88.20
2017-11-21T15:03:11.412Z,87.90
2017-11-21T15:05:38.658Z,88.10
2017-11-21T15:08:05.147Z,88.10
2017-11-21T15:10:32.373Z,87.20
2017-11-21T15:12:58.859Z,87.60
2017-11-21T15:15:25.347Z,88.00
2017-11-21T15:17:51.814Z,87.80
2017-11-21T15:20:18.270Z,88.50
2017-11-21T15:22:44.804Z,88.30
2017-11-21T15:25:11.274Z,87.80
2017-11-21T15:27:37.721Z,88.80
2017-11-21T15:30:04.271Z,90.30
2017-11-21T15:32:30.731Z,89.90
2017-11-21T15:34:57.179Z,90.20
2017-11-21T15:37:24.503Z,90.70
2017-11-21T15:39:50.935Z,90.60
2017-11-21T15:42:17.383Z,90.80
2017-11-21T15:44:43.864Z,91.00
2017-11-21T15:47:11.067Z,91.70
2017-11-21T15:49:37.566Z,91.70
2017-11-21T15:52:04.031Z,91.80
2017-11-21T15:54:30.458Z,92.10
2017-11-21T15:56:56.947Z,92.30
2017-11-21T15:59:24.182Z,92.60
2017-11-21T16:01:51.475Z,92.60
2017-11-21T16:04:17.926Z,92.50
2017-11-21T16:06:44.442Z,92.90
2017-11-21T16:09:10.933Z,93.10
2017-11-21T16:11:38.247Z,93.40
2017-11-21T16:14:04.752Z,93.40
2017-11-21T16:16:31.247Z,93.40
2017-11-21T16:18:57.687Z,93.60
2017-11-21T16:21:24.160Z,93.40
2017-11-21T16:23:50.595Z,93.40
2017-11-21T16:26:17.079Z,93.50
2017-11-21T16:28:43.522Z,93.40
2017-11-21T16:31:09.979Z,93.40
2017-11-21T16:33:37.219Z,94.00
2017-11-21T16:36:04.431Z,93.80
2017-11-21T16:38:31.701Z,94.10
2017-11-21T16:40:58.127Z,94.10
2017-11-21T16:43:24.619Z,94.80
2017-11-21T16:45:51.102Z,94.80
2017-11-21T16:48:17.573Z,95.10
2017-11-21T16:50:44.742Z,95.10
2017-11-21T16:53:11.191Z,95.10
2017-11-21T16:55:37.651Z,95.50
2017-11-21T16:58:04.151Z,95.40
2017-11-21T17:00:30.672Z,95.40
2017-11-21T17:02:57.151Z,95.30
2017-11-21T17:05:23.616Z,95.40
2017-11-21T17:07:50.111Z,95.60
2017-11-21T17:10:16.580Z,95.70
2017-11-21T17:12:43.795Z,95.80
2017-11-21T17:15:11.011Z,95.70
2017-11-21T17:17:37.532Z,95.70
2017-11-21T17:20:04.010Z,95.50
2017-11-21T17:22:30.461Z,95.00
2017-11-21T17:24:56.909Z,94.80
2017-11-21T17:27:24.093Z,94.50
2017-11-21T17:29:50.582Z,94.50
2017-11-21T17:32:17.002Z,94.50
2017-11-21T17:34:43.435Z,94.70
2017-11-21T17:37:10.692Z,94.50
2017-11-21T17:39:37.143Z,94.50
2017-11-21T17:42:03.556Z,94.80
2017-11-21T17:44:30.129Z,94.60
2017-11-21T17:46:56.561Z,94.90
2017-11-21T17:49:23.799Z,95.30
2017-11-21T17:51:50.984Z,95.70
2017-11-21T17:54:17.492Z,95.70
2017-11-21T17:56:43.990Z,95.60
2017-11-21T17:59:10.419Z,95.70
2017-11-21T18:01:36.873Z,95.50
2017-11-21T18:04:04.113Z,95.70
2017-11-21T18:06:31.347Z,95.90
2017-11-21T18:08:57.817Z,95.90
2017-11-21T18:11:25.062Z,95.70
2017-11-21T18:13:51.508Z,95.70
2017-11-21T18:16:17.990Z,96.20
2017-11-21T18:18:44.503Z,95.90
2017-11-21T18:21:10.986Z,96.00
2017-11-21T18:23:37.446Z,95.90
2017-11-21T18:26:04.659Z,96.00
2017-11-21T18:28:31.110Z,96.00
2017-11-21T18:30:57.550Z,96.10
2017-11-21T18:33:24.051Z,96.30
2017-11-21T18:35:50.468Z,96.50
2017-11-21T18:38:16.914Z,96.30
2017-11-21T18:40:43.339Z,96.30
2017-11-21T18:43:09.818Z,96.40
2017-11-21T18:45:36.337Z,96.70
2017-11-21T18:48:02.779Z,96.90
2017-11-21T18:50:29.237Z,96.90
2017-11-21T18:52:56.394Z,97.20
2017-11-21T18:55:22.853Z,97.20
2017-11-21T18:57:49.282Z,97.00
2017-11-21T19:00:15.750Z,97.10
2017-11-21T19:02:42.978Z,97.30
2017-11-21T19:05:09.430Z,97.20
2017-11-21T19:07:35.922Z,97.00
2017-11-21T19:10:02.382Z,96.80
2017-11-21T19:12:28.833Z,97.30
2017-11-21T19:14:55.290Z,97.20
2017-11-21T19:17:21.762Z,97.30
2017-11-21T19:19:48.248Z,97.30
2017-11-21T19:22:14.724Z,97.40
2017-11-21T19:24:41.242Z,97.50
2017-11-21T19:27:08.456Z,97.30
2017-11-21T19:29:34.900Z,97.30
2017-11-21T19:32:01.325Z,97.50
2017-11-21T19:34:27.787Z,97.30
2017-11-21T19:36:54.238Z,97.30
2017-11-21T19:39:20.713Z,97.30
2017-11-21T19:41:47.169Z,97.60
2017-11-21T19:44:13.607Z,97.40
2017-11-21T19:46:40.109Z,97.60
2017-11-21T19:49:06.585Z,97.30
2017-11-21T19:51:33.785Z,97.60
2017-11-21T19:54:00.290Z,97.60
2017-11-21T19:56:26.719Z,97.70
2017-11-21T19:58:53.972Z,97.90
2017-11-21T20:01:21.139Z,98.00
2017-11-21T20:03:47.611Z,98.00
2017-11-21T20:06:14.839Z,98.20
2017-11-21T20:08:41.263Z,98.20
2017-11-21T20:11:07.718Z,98.30
2017-11-21T20:13:34.168Z,98.50
2017-11-21T20:16:00.667Z,98.50
2017-11-21T20:18:27.118Z,98.40
2017-11-21T20:20:54.672Z,98.50
2017-11-21T20:23:21.150Z,98.50
2017-11-21T20:25:47.625Z,98.50
2017-11-21T20:28:14.131Z,98.40
2017-11-21T20:30:40.600Z,98.80
2017-11-21T20:33:07.124Z,98.80
2017-11-21T20:35:33.633Z,98.90
2017-11-21T20:38:00.102Z,99.00
2017-11-21T20:40:26.624Z,99.00
2017-11-21T20:42:53.142Z,99.30
2017-11-21T20:45:19.658Z,99.30
2017-11-21T20:47:46.215Z,99.40
2017-11-21T20:50:12.697Z,99.30
2017-11-21T20:52:39.190Z,99.40
2017-11-21T20:55:05.674Z,99.20
2017-11-21T20:57:32.923Z,99.10
2017-11-21T20:59:59.433Z,99.10
2017-11-21T21:02:25.864Z,99.10
2017-11-21T21:04:52.300Z,99.00
2017-11-21T21:07:18.759Z,99.40
2017-11-21T21:09:45.966Z,98.20
2017-11-21T21:12:12.407Z,98.20
2017-11-21T21:14:38.881Z,98.00
2017-11-21T21:17:05.320Z,97.70
2017-11-21T21:19:31.774Z,97.40
2017-11-21T21:21:58.252Z,97.00
2017-11-21T21:24:24.667Z,96.80
2017-11-21T21:26:51.143Z,96.70
2017-11-21T21:29:18.395Z,96.80
2017-11-21T21:31:44.867Z,96.80
2017-11-21T21:34:11.305Z,96.30
2017-11-21T21:36:37.742Z,96.10
2017-11-21T21:39:04.195Z,96.10
2017-11-21T21:41:30.666Z,95.70
2017-11-21T21:43:57.091Z,95.40
2017-11-21T21:46:23.585Z,95.30
2017-11-21T21:48:50.001Z,95.60
2017-11-21T21:51:16.446Z,95.50
2017-11-21T21:53:42.950Z,95.60
2017-11-21T21:56:09.434Z,95.80
2017-11-21T21:58:35.930Z,96.00
2017-11-21T22:01:02.382Z,96.20
2017-11-21T22:03:28.865Z,96.30
2017-11-21T22:05:56.081Z,96.40
2017-11-21T22:08:22.538Z,96.40
2017-11-21T22:10:48.986Z,96.40
2017-11-21T22:13:15.406Z,96.40
2017-11-21T22:15:41.811Z,96.60
2017-11-21T22:18:08.549Z,96.90
2017-11-21T22:20:34.987Z,96.50
2017-11-21T22:23:01.423Z,96.40
2017-11-21T22:25:28.083Z,96.20
2017-11-21T22:27:54.486Z,96.50
2017-11-21T22:30:20.918Z,96.30
2017-11-21T22:32:47.408Z,96.60
2017-11-21T22:35:14.567Z,96.70
2017-11-21T22:37:41.008Z,96.70
2017-11-21T22:40:07.464Z,96.70
2017-11-21T22:42:34.215Z,96.80
2017-11-21T22:45:00.631Z,96.70
2017-11-21T22:47:27.086Z,96.90
2017-11-21T22:49:53.809Z,97.00
2017-11-21T22:52:20.234Z,97.10
2017-11-21T22:54:46.743Z,97.20
2017-11-21T22:57:13.938Z,97.00
2017-11-21T22:59:40.357Z,97.00
2017-11-21T23:02:06.811Z,97.20
2017-11-21T23:04:33.238Z,97.20
2017-11-21T23:06:59.963Z,97.10
2017-11-21T23:09:26.397Z,97.20
2017-11-21T23:11:52.868Z,97.20
2017-11-21T23:14:19.302Z,97.00
2017-11-21T23:16:46.498Z,96.60
2017-11-21T23:19:12.980Z,96.50
2017-11-21T23:21:39.371Z,96.40
2017-11-21T23:24:05.821Z,96.30
2017-11-21T23:26:32.231Z,96.50
2017-11-21T23:28:58.654Z,96.30
2017-11-21T23:31:25.138Z,96.40
2017-11-21T23:33:51.589Z,96.30
2017-11-21T23:36:18.021Z,96.40
2017-11-21T23:38:45.219Z,96.80
2017-11-21T23:41:11.675Z,96.70
2017-11-21T23:43:38.051Z,96.40
2017-11-21T23:46:04.508Z,96.20
2017-11-21T23:48:30.945Z,96.40
2017-11-21T23:50:57.372Z,96.70
2017-11-21T23:53:23.766Z,96.40
2017-11-21T23:55:50.187Z,96.10
2017-11-21T23:58:16.606Z,95.90
